This is the latest recevied weather packets stored in our database for station/object S54Z-11. If no packets are shown the sender has not sent any weather packets the latest 10 day(s).
| Time | Temp. | Humidity | Pressure | Rain* | Wind** | Luminosity | Snow |
|---|---|---|---|---|---|---|---|
| 1777694977 | 9.44° C | 64% | 1026.8 hPa | - | - | - | - |
| 1777694076 | 7.22° C | 74% | 1026.8 hPa | - | - | - | - |
| 1777693176 | 6.67° C | 74% | 1026.8 hPa | - | - | - | - |
| 1777692276 | 6.67° C | 72% | 1026.8 hPa | - | - | - | - |
| 1777691376 | 7.22° C | 72% | 1026.8 hPa | - | - | - | - |
| 1777690475 | 7.22° C | 72% | 1026.9 hPa | - | - | - | - |
| 1777689576 | 7.22° C | 71% | 1027 hPa | - | - | - | - |
| 1777688675 | 8.33° C | 64% | 1027 hPa | - | - | - | - |
| 1777687775 | 8.89° C | 61% | 1027 hPa | - | - | - | - |
| 1777686875 | 8.89° C | 60% | 1026.9 hPa | - | - | - | - |
| 1777685975 | 8.33° C | 63% | 1027.1 hPa | - | - | - | - |
| 1777685075 | 8.33° C | 64% | 1027.1 hPa | - | - | - | - |
| 1777684175 | 8.33° C | 64% | 1027.2 hPa | - | - | - | - |
| 1777683275 | 8.33° C | 62% | 1027.2 hPa | - | - | - | - |
| 1777682375 | 8.89° C | 61% | 1027.3 hPa | - | - | - | - |
| 1777681473 | 8.33° C | 62% | 1027.4 hPa | - | - | - | - |
| 1777680573 | 8.89° C | 60% | 1027.5 hPa | - | - | - | - |
| 1777679673 | 8.89° C | 60% | 1027.5 hPa | - | - | - | - |
| 1777678773 | 8.89° C | 59% | 1027.6 hPa | - | - | - | - |
| 1777677873 | 9.44° C | 59% | 1027.8 hPa | - | - | - | - |
| 1777676973 | 8.89° C | 60% | 1027.8 hPa | - | - | - | - |
| 1777676073 | 8.89° C | 59% | 1028 hPa | - | - | - | - |
| 1777675173 | 9.44° C | 58% | 1027.9 hPa | - | - | - | - |
| 1777674274 | 9.44° C | 57% | 1028.1 hPa | - | - | - | - |
| 1777673372 | 9.44° C | 57% | 1028 hPa | - | - | - | - |
* Rain since midnight (hover to see other rain measurements)
** Current wind speed in m/s (hover to see current wind gust speed)